Temple Terrace, Florida
Current Conditions -  °F | °C
As of 5:55 AM on Monday 20 Oct 2014 (Local Time) from KVDF Reporting Station
Haze Haze  
Wind Chill: 61°   Ceiling: 700
Heat Index: 61°   Visibility: 1mi
Dew Point: 59°   Wind: 0mph
Humidity: 94%   Direction: NA
Pressure: 30.03"   Gusts: NA
Location:  28.05°N, 82.39°W
Report Text: KVDF 200955Z AUTO 00000KT 1SM BR VV007 16/15 A3003 RMK AO2
Loading
Personal Weather Stations






























Interactive Weather Map
Tropical Storm Tracking
New forecast layout! Learn more

10-Day Weather Forecast

Advertisements
Track Severe Weather on mobile